sensor_id;sensor_type;location;lat;lon;timestamp;P1;durP1;ratioP1;P2;durP2;ratioP2
14923;SDS011;7554;43.600;1.480;2023-05-10T00:01:40;16.17;;;3.87;;
14923;SDS011;7554;43.600;1.480;2023-05-10T00:04:09;21.93;;;3.70;;
14923;SDS011;7554;43.600;1.480;2023-05-10T00:06:36;19.90;;;4.60;;
14923;SDS011;7554;43.600;1.480;2023-05-10T00:09:04;14.90;;;3.60;;
14923;SDS011;7554;43.600;1.480;2023-05-10T00:11:31;14.53;;;3.73;;
14923;SDS011;7554;43.600;1.480;2023-05-10T00:13:58;14.27;;;3.57;;
14923;SDS011;7554;43.600;1.480;2023-05-10T00:16:26;15.17;;;4.20;;
14923;SDS011;7554;43.600;1.480;2023-05-10T00:18:53;14.43;;;3.97;;
14923;SDS011;7554;43.600;1.480;2023-05-10T00:21:22;16.27;;;4.83;;
14923;SDS011;7554;43.600;1.480;2023-05-10T00:23:49;15.97;;;3.87;;
14923;SDS011;7554;43.600;1.480;2023-05-10T00:26:16;12.40;;;3.73;;
14923;SDS011;7554;43.600;1.480;2023-05-10T00:28:44;16.83;;;4.63;;
14923;SDS011;7554;43.600;1.480;2023-05-10T00:31:11;17.03;;;3.90;;
14923;SDS011;7554;43.600;1.480;2023-05-10T00:33:39;15.60;;;4.07;;
14923;SDS011;7554;43.600;1.480;2023-05-10T00:36:07;16.50;;;3.77;;
14923;SDS011;7554;43.600;1.480;2023-05-10T00:38:36;19.27;;;4.03;;
14923;SDS011;7554;43.600;1.480;2023-05-10T00:41:03;20.30;;;3.80;;
14923;SDS011;7554;43.600;1.480;2023-05-10T00:43:30;29.63;;;4.63;;
14923;SDS011;7554;43.600;1.480;2023-05-10T00:45:58;13.43;;;4.37;;
14923;SDS011;7554;43.600;1.480;2023-05-10T00:48:25;28.43;;;3.90;;
14923;SDS011;7554;43.600;1.480;2023-05-10T00:50:53;20.30;;;5.00;;
14923;SDS011;7554;43.600;1.480;2023-05-10T00:53:20;23.60;;;3.97;;
14923;SDS011;7554;43.600;1.480;2023-05-10T00:55:49;20.93;;;4.03;;
14923;SDS011;7554;43.600;1.480;2023-05-10T00:58:17;19.10;;;4.60;;
14923;SDS011;7554;43.600;1.480;2023-05-10T01:00:44;21.13;;;4.03;;
14923;SDS011;7554;43.600;1.480;2023-05-10T01:03:13;24.60;;;5.20;;
14923;SDS011;7554;43.600;1.480;2023-05-10T01:05:42;17.83;;;3.90;;
14923;SDS011;7554;43.600;1.480;2023-05-10T01:08:09;25.67;;;4.27;;
14923;SDS011;7554;43.600;1.480;2023-05-10T01:10:36;19.87;;;3.97;;
14923;SDS011;7554;43.600;1.480;2023-05-10T01:13:05;26.20;;;4.60;;
14923;SDS011;7554;43.600;1.480;2023-05-10T01:15:33;22.23;;;4.77;;
14923;SDS011;7554;43.600;1.480;2023-05-10T01:18:01;16.63;;;3.83;;
14923;SDS011;7554;43.600;1.480;2023-05-10T01:20:32;27.10;;;3.83;;
14923;SDS011;7554;43.600;1.480;2023-05-10T01:26:07;17.73;;;3.90;;
14923;SDS011;7554;43.600;1.480;2023-05-10T01:34:48;15.63;;;3.40;;
14923;SDS011;7554;43.600;1.480;2023-05-10T01:37:25;19.80;;;3.40;;
14923;SDS011;7554;43.600;1.480;2023-05-10T01:40:00;16.43;;;3.30;;
14923;SDS011;7554;43.600;1.480;2023-05-10T01:42:32;12.63;;;3.37;;
14923;SDS011;7554;43.600;1.480;2023-05-10T01:45:08;18.00;;;3.60;;
14923;SDS011;7554;43.600;1.480;2023-05-10T01:47:44;21.93;;;4.40;;
14923;SDS011;7554;43.600;1.480;2023-05-10T01:50:17;21.27;;;3.33;;
14923;SDS011;7554;43.600;1.480;2023-05-10T01:52:50;17.40;;;4.00;;
14923;SDS011;7554;43.600;1.480;2023-05-10T01:55:21;17.27;;;3.30;;
14923;SDS011;7554;43.600;1.480;2023-05-10T01:57:52;18.93;;;3.50;;
14923;SDS011;7554;43.600;1.480;2023-05-10T02:00:27;20.93;;;4.50;;
14923;SDS011;7554;43.600;1.480;2023-05-10T02:02:57;19.40;;;4.37;;
14923;SDS011;7554;43.600;1.480;2023-05-10T02:05:27;21.00;;;4.17;;
14923;SDS011;7554;43.600;1.480;2023-05-10T02:07:57;16.60;;;4.20;;
14923;SDS011;7554;43.600;1.480;2023-05-10T02:10:27;18.03;;;3.43;;
14923;SDS011;7554;43.600;1.480;2023-05-10T02:12:55;20.53;;;3.40;;
14923;SDS011;7554;43.600;1.480;2023-05-10T02:15:26;18.13;;;3.57;;
14923;SDS011;7554;43.600;1.480;2023-05-10T02:17:55;15.87;;;3.30;;
14923;SDS011;7554;43.600;1.480;2023-05-10T02:20:26;15.10;;;3.30;;
14923;SDS011;7554;43.600;1.480;2023-05-10T02:22:54;20.67;;;4.03;;
14923;SDS011;7554;43.600;1.480;2023-05-10T02:25:24;23.47;;;3.77;;
14923;SDS011;7554;43.600;1.480;2023-05-10T02:27:53;23.03;;;3.70;;
14923;SDS011;7554;43.600;1.480;2023-05-10T02:30:23;13.67;;;3.13;;
14923;SDS011;7554;43.600;1.480;2023-05-10T02:32:51;12.40;;;2.77;;
14923;SDS011;7554;43.600;1.480;2023-05-10T02:35:20;14.73;;;3.13;;
14923;SDS011;7554;43.600;1.480;2023-05-10T02:37:49;9.70;;;3.13;;
14923;SDS011;7554;43.600;1.480;2023-05-10T02:40:17;19.47;;;3.47;;
14923;SDS011;7554;43.600;1.480;2023-05-10T02:42:46;20.90;;;3.97;;
14923;SDS011;7554;43.600;1.480;2023-05-10T02:45:17;18.90;;;3.27;;
14923;SDS011;7554;43.600;1.480;2023-05-10T02:47:47;16.03;;;3.23;;
14923;SDS011;7554;43.600;1.480;2023-05-10T02:50:14;16.27;;;3.27;;
14923;SDS011;7554;43.600;1.480;2023-05-10T02:52:44;17.90;;;3.40;;
14923;SDS011;7554;43.600;1.480;2023-05-10T02:55:14;17.80;;;3.47;;
14923;SDS011;7554;43.600;1.480;2023-05-10T02:57:43;22.53;;;3.83;;
14923;SDS011;7554;43.600;1.480;2023-05-10T03:00:17;19.70;;;3.37;;
14923;SDS011;7554;43.600;1.480;2023-05-10T03:02:45;16.97;;;3.47;;
14923;SDS011;7554;43.600;1.480;2023-05-10T03:05:12;17.47;;;3.07;;
14923;SDS011;7554;43.600;1.480;2023-05-10T03:07:39;22.27;;;3.80;;
14923;SDS011;7554;43.600;1.480;2023-05-10T03:10:09;19.33;;;3.60;;
14923;SDS011;7554;43.600;1.480;2023-05-10T03:12:47;22.33;;;3.77;;
14923;SDS011;7554;43.600;1.480;2023-05-10T03:15:25;19.60;;;3.40;;
14923;SDS011;7554;43.600;1.480;2023-05-10T03:18:01;15.00;;;2.90;;
14923;SDS011;7554;43.600;1.480;2023-05-10T03:20:35;15.80;;;3.37;;
14923;SDS011;7554;43.600;1.480;2023-05-10T03:23:07;15.23;;;3.37;;
14923;SDS011;7554;43.600;1.480;2023-05-10T03:25:40;17.10;;;2.90;;
14923;SDS011;7554;43.600;1.480;2023-05-10T03:28:10;18.43;;;3.10;;
14923;SDS011;7554;43.600;1.480;2023-05-10T03:30:38;13.67;;;3.03;;
14923;SDS011;7554;43.600;1.480;2023-05-10T03:33:07;16.10;;;2.63;;
14923;SDS011;7554;43.600;1.480;2023-05-10T03:35:34;12.87;;;2.37;;
14923;SDS011;7554;43.600;1.480;2023-05-10T03:38:01;12.30;;;2.43;;
14923;SDS011;7554;43.600;1.480;2023-05-10T03:40:29;17.77;;;3.13;;
14923;SDS011;7554;43.600;1.480;2023-05-10T03:42:58;12.13;;;2.57;;
14923;SDS011;7554;43.600;1.480;2023-05-10T03:45:26;13.73;;;2.17;;
14923;SDS011;7554;43.600;1.480;2023-05-10T03:47:53;15.93;;;2.40;;
14923;SDS011;7554;43.600;1.480;2023-05-10T03:50:21;12.77;;;2.00;;
14923;SDS011;7554;43.600;1.480;2023-05-10T03:52:48;16.37;;;2.30;;
14923;SDS011;7554;43.600;1.480;2023-05-10T03:55:16;14.73;;;2.53;;
14923;SDS011;7554;43.600;1.480;2023-05-10T03:57:43;20.00;;;2.90;;
14923;SDS011;7554;43.600;1.480;2023-05-10T04:00:13;14.93;;;3.13;;
14923;SDS011;7554;43.600;1.480;2023-05-10T04:02:40;20.53;;;2.77;;
14923;SDS011;7554;43.600;1.480;2023-05-10T04:05:08;14.60;;;2.80;;
14923;SDS011;7554;43.600;1.480;2023-05-10T04:07:35;15.30;;;2.97;;
14923;SDS011;7554;43.600;1.480;2023-05-10T04:10:03;17.73;;;2.87;;
14923;SDS011;7554;43.600;1.480;2023-05-10T04:12:31;12.17;;;2.80;;
14923;SDS011;7554;43.600;1.480;2023-05-10T04:14:59;16.13;;;3.40;;
14923;SDS011;7554;43.600;1.480;2023-05-10T04:17:27;18.80;;;2.77;;
14923;SDS011;7554;43.600;1.480;2023-05-10T04:19:55;16.20;;;2.97;;
14923;SDS011;7554;43.600;1.480;2023-05-10T04:22:22;16.47;;;2.33;;
14923;SDS011;7554;43.600;1.480;2023-05-10T04:24:50;15.00;;;2.73;;
14923;SDS011;7554;43.600;1.480;2023-05-10T04:27:17;16.47;;;2.90;;
14923;SDS011;7554;43.600;1.480;2023-05-10T04:29:44;22.03;;;3.87;;
14923;SDS011;7554;43.600;1.480;2023-05-10T04:32:12;14.20;;;2.50;;
14923;SDS011;7554;43.600;1.480;2023-05-10T04:34:42;14.73;;;3.30;;
14923;SDS011;7554;43.600;1.480;2023-05-10T04:37:10;19.97;;;3.07;;
14923;SDS011;7554;43.600;1.480;2023-05-10T04:39:37;12.13;;;2.43;;
14923;SDS011;7554;43.600;1.480;2023-05-10T04:42:04;15.63;;;2.60;;
14923;SDS011;7554;43.600;1.480;2023-05-10T04:44:32;16.37;;;2.63;;
14923;SDS011;7554;43.600;1.480;2023-05-10T04:46:59;11.93;;;2.90;;
14923;SDS011;7554;43.600;1.480;2023-05-10T04:49:27;12.83;;;2.50;;
14923;SDS011;7554;43.600;1.480;2023-05-10T04:51:56;12.73;;;2.47;;
14923;SDS011;7554;43.600;1.480;2023-05-10T04:54:23;13.67;;;2.67;;
14923;SDS011;7554;43.600;1.480;2023-05-10T04:56:50;13.77;;;2.70;;
14923;SDS011;7554;43.600;1.480;2023-05-10T04:59:18;11.83;;;2.30;;
14923;SDS011;7554;43.600;1.480;2023-05-10T05:01:45;15.23;;;2.90;;
14923;SDS011;7554;43.600;1.480;2023-05-10T05:04:12;12.80;;;2.90;;
14923;SDS011;7554;43.600;1.480;2023-05-10T05:06:40;12.90;;;3.00;;
14923;SDS011;7554;43.600;1.480;2023-05-10T05:09:09;13.80;;;3.00;;
14923;SDS011;7554;43.600;1.480;2023-05-10T05:11:37;14.43;;;3.37;;
14923;SDS011;7554;43.600;1.480;2023-05-10T05:14:05;15.13;;;3.07;;
14923;SDS011;7554;43.600;1.480;2023-05-10T05:16:32;17.13;;;3.03;;
14923;SDS011;7554;43.600;1.480;2023-05-10T05:19:00;16.23;;;2.90;;
14923;SDS011;7554;43.600;1.480;2023-05-10T05:21:27;19.67;;;3.10;;
14923;SDS011;7554;43.600;1.480;2023-05-10T05:23:55;14.83;;;2.33;;
14923;SDS011;7554;43.600;1.480;2023-05-10T05:26:24;16.90;;;2.90;;
14923;SDS011;7554;43.600;1.480;2023-05-10T05:28:51;13.30;;;2.97;;
14923;SDS011;7554;43.600;1.480;2023-05-10T05:31:19;14.87;;;2.50;;
14923;SDS011;7554;43.600;1.480;2023-05-10T05:33:47;12.23;;;2.60;;
14923;SDS011;7554;43.600;1.480;2023-05-10T05:36:14;13.37;;;2.70;;
14923;SDS011;7554;43.600;1.480;2023-05-10T05:38:41;12.07;;;2.60;;
14923;SDS011;7554;43.600;1.480;2023-05-10T05:41:09;12.60;;;2.73;;
14923;SDS011;7554;43.600;1.480;2023-05-10T05:43:37;9.87;;;2.33;;
14923;SDS011;7554;43.600;1.480;2023-05-10T05:46:05;10.50;;;2.30;;
14923;SDS011;7554;43.600;1.480;2023-05-10T05:48:32;12.83;;;2.43;;
14923;SDS011;7554;43.600;1.480;2023-05-10T05:50:59;9.83;;;2.97;;
14923;SDS011;7554;43.600;1.480;2023-05-10T05:53:26;12.03;;;2.60;;
14923;SDS011;7554;43.600;1.480;2023-05-10T05:55:54;10.90;;;2.57;;
14923;SDS011;7554;43.600;1.480;2023-05-10T05:58:22;13.63;;;2.20;;
14923;SDS011;7554;43.600;1.480;2023-05-10T06:00:52;12.87;;;2.77;;
14923;SDS011;7554;43.600;1.480;2023-05-10T06:03:19;13.27;;;3.13;;
14923;SDS011;7554;43.600;1.480;2023-05-10T06:05:47;14.53;;;2.80;;
14923;SDS011;7554;43.600;1.480;2023-05-10T06:08:14;8.93;;;2.20;;
14923;SDS011;7554;43.600;1.480;2023-05-10T06:10:42;14.17;;;2.30;;
14923;SDS011;7554;43.600;1.480;2023-05-10T06:13:09;15.20;;;2.83;;
14923;SDS011;7554;43.600;1.480;2023-05-10T06:15:36;13.43;;;2.43;;
14923;SDS011;7554;43.600;1.480;2023-05-10T06:18:05;12.37;;;2.50;;
14923;SDS011;7554;43.600;1.480;2023-05-10T06:20:33;18.97;;;2.97;;
14923;SDS011;7554;43.600;1.480;2023-05-10T06:23:00;10.00;;;2.90;;
14923;SDS011;7554;43.600;1.480;2023-05-10T06:25:27;18.20;;;2.80;;
14923;SDS011;7554;43.600;1.480;2023-05-10T06:27:55;10.63;;;2.33;;
14923;SDS011;7554;43.600;1.480;2023-05-10T06:30:23;17.67;;;3.30;;
14923;SDS011;7554;43.600;1.480;2023-05-10T06:32:53;17.23;;;3.23;;
14923;SDS011;7554;43.600;1.480;2023-05-10T06:35:22;10.23;;;2.93;;
14923;SDS011;7554;43.600;1.480;2023-05-10T06:37:50;18.70;;;4.00;;
14923;SDS011;7554;43.600;1.480;2023-05-10T06:40:17;17.33;;;2.30;;
14923;SDS011;7554;43.600;1.480;2023-05-10T06:42:45;9.47;;;2.73;;
14923;SDS011;7554;43.600;1.480;2023-05-10T06:45:13;14.53;;;2.77;;
14923;SDS011;7554;43.600;1.480;2023-05-10T06:47:40;12.80;;;2.50;;
14923;SDS011;7554;43.600;1.480;2023-05-10T06:50:08;8.53;;;2.20;;
14923;SDS011;7554;43.600;1.480;2023-05-10T06:52:40;11.30;;;2.50;;
14923;SDS011;7554;43.600;1.480;2023-05-10T06:55:07;9.77;;;2.60;;
14923;SDS011;7554;43.600;1.480;2023-05-10T06:57:35;11.80;;;2.20;;
14923;SDS011;7554;43.600;1.480;2023-05-10T07:00:03;12.40;;;2.63;;
14923;SDS011;7554;43.600;1.480;2023-05-10T07:02:31;10.33;;;2.90;;
14923;SDS011;7554;43.600;1.480;2023-05-10T07:04:58;12.77;;;2.47;;
14923;SDS011;7554;43.600;1.480;2023-05-10T07:07:26;12.77;;;3.10;;
14923;SDS011;7554;43.600;1.480;2023-05-10T07:09:54;11.93;;;2.27;;
14923;SDS011;7554;43.600;1.480;2023-05-10T07:12:22;11.17;;;2.53;;
14923;SDS011;7554;43.600;1.480;2023-05-10T07:14:50;11.07;;;2.53;;
14923;SDS011;7554;43.600;1.480;2023-05-10T07:17:17;8.50;;;2.33;;
14923;SDS011;7554;43.600;1.480;2023-05-10T07:19:44;12.40;;;2.67;;
14923;SDS011;7554;43.600;1.480;2023-05-10T07:22:12;12.07;;;2.40;;
14923;SDS011;7554;43.600;1.480;2023-05-10T07:24:39;10.07;;;2.37;;
14923;SDS011;7554;43.600;1.480;2023-05-10T07:27:08;12.80;;;2.80;;
14923;SDS011;7554;43.600;1.480;2023-05-10T07:29:36;11.07;;;2.57;;
14923;SDS011;7554;43.600;1.480;2023-05-10T07:32:03;9.37;;;2.77;;
14923;SDS011;7554;43.600;1.480;2023-05-10T07:34:31;12.53;;;2.50;;
14923;SDS011;7554;43.600;1.480;2023-05-10T07:36:58;9.83;;;2.20;;
14923;SDS011;7554;43.600;1.480;2023-05-10T07:39:26;11.60;;;2.57;;
14923;SDS011;7554;43.600;1.480;2023-05-10T07:41:53;11.03;;;2.27;;
14923;SDS011;7554;43.600;1.480;2023-05-10T07:44:22;9.13;;;2.43;;
14923;SDS011;7554;43.600;1.480;2023-05-10T07:46:49;13.70;;;2.60;;
14923;SDS011;7554;43.600;1.480;2023-05-10T07:49:17;12.67;;;2.70;;
14923;SDS011;7554;43.600;1.480;2023-05-10T07:51:44;14.73;;;2.63;;
14923;SDS011;7554;43.600;1.480;2023-05-10T07:54:12;13.73;;;2.87;;
14923;SDS011;7554;43.600;1.480;2023-05-10T07:56:40;10.03;;;2.60;;
14923;SDS011;7554;43.600;1.480;2023-05-10T07:59:14;10.90;;;2.33;;
14923;SDS011;7554;43.600;1.480;2023-05-10T08:01:43;14.23;;;2.57;;
14923;SDS011;7554;43.600;1.480;2023-05-10T08:04:11;15.20;;;2.60;;
14923;SDS011;7554;43.600;1.480;2023-05-10T08:06:39;12.37;;;2.60;;
14923;SDS011;7554;43.600;1.480;2023-05-10T08:09:06;21.03;;;2.90;;
14923;SDS011;7554;43.600;1.480;2023-05-10T08:11:33;17.70;;;2.30;;
14923;SDS011;7554;43.600;1.480;2023-05-10T08:14:00;10.37;;;2.00;;
14923;SDS011;7554;43.600;1.480;2023-05-10T08:16:28;12.43;;;2.57;;
14923;SDS011;7554;43.600;1.480;2023-05-10T08:18:56;14.10;;;2.80;;
14923;SDS011;7554;43.600;1.480;2023-05-10T08:21:24;9.87;;;2.40;;
14923;SDS011;7554;43.600;1.480;2023-05-10T08:23:51;6.90;;;2.00;;
14923;SDS011;7554;43.600;1.480;2023-05-10T08:26:18;6.13;;;2.13;;
14923;SDS011;7554;43.600;1.480;2023-05-10T08:28:46;8.60;;;2.70;;
14923;SDS011;7554;43.600;1.480;2023-05-10T08:31:14;11.67;;;2.80;;
14923;SDS011;7554;43.600;1.480;2023-05-10T08:33:42;7.13;;;1.93;;
14923;SDS011;7554;43.600;1.480;2023-05-10T08:36:10;10.00;;;2.30;;
14923;SDS011;7554;43.600;1.480;2023-05-10T08:38:39;9.07;;;2.03;;
14923;SDS011;7554;43.600;1.480;2023-05-10T08:41:07;9.40;;;2.70;;
14923;SDS011;7554;43.600;1.480;2023-05-10T08:43:34;9.40;;;2.10;;
14923;SDS011;7554;43.600;1.480;2023-05-10T08:46:03;8.70;;;2.03;;
14923;SDS011;7554;43.600;1.480;2023-05-10T08:51:01;12.87;;;2.13;;
14923;SDS011;7554;43.600;1.480;2023-05-10T08:53:31;11.83;;;2.63;;
14923;SDS011;7554;43.600;1.480;2023-05-10T08:56:03;8.13;;;2.00;;
14923;SDS011;7554;43.600;1.480;2023-05-10T08:58:32;9.60;;;2.70;;
14923;SDS011;7554;43.600;1.480;2023-05-10T09:01:00;8.83;;;2.47;;
14923;SDS011;7554;43.600;1.480;2023-05-10T09:03:28;6.53;;;2.00;;
14923;SDS011;7554;43.600;1.480;2023-05-10T09:05:56;9.40;;;2.03;;
14923;SDS011;7554;43.600;1.480;2023-05-10T09:08:23;9.93;;;2.33;;
14923;SDS011;7554;43.600;1.480;2023-05-10T09:10:53;10.67;;;2.17;;
14923;SDS011;7554;43.600;1.480;2023-05-10T09:13:21;6.87;;;1.93;;
14923;SDS011;7554;43.600;1.480;2023-05-10T09:15:49;8.53;;;2.03;;
14923;SDS011;7554;43.600;1.480;2023-05-10T09:18:18;11.00;;;2.33;;
14923;SDS011;7554;43.600;1.480;2023-05-10T09:20:45;9.50;;;2.17;;
14923;SDS011;7554;43.600;1.480;2023-05-10T09:23:12;8.83;;;2.10;;
14923;SDS011;7554;43.600;1.480;2023-05-10T09:25:41;7.87;;;2.60;;
14923;SDS011;7554;43.600;1.480;2023-05-10T09:28:10;8.77;;;2.00;;
14923;SDS011;7554;43.600;1.480;2023-05-10T09:30:37;8.53;;;1.80;;
14923;SDS011;7554;43.600;1.480;2023-05-10T09:33:05;5.17;;;1.70;;
14923;SDS011;7554;43.600;1.480;2023-05-10T09:35:33;7.27;;;1.80;;
14923;SDS011;7554;43.600;1.480;2023-05-10T09:38:02;6.80;;;1.60;;
14923;SDS011;7554;43.600;1.480;2023-05-10T09:40:30;7.23;;;1.60;;
14923;SDS011;7554;43.600;1.480;2023-05-10T09:42:57;6.20;;;1.50;;
14923;SDS011;7554;43.600;1.480;2023-05-10T09:45:28;6.50;;;2.00;;
14923;SDS011;7554;43.600;1.480;2023-05-10T09:47:57;6.70;;;1.60;;
14923;SDS011;7554;43.600;1.480;2023-05-10T09:50:25;7.13;;;1.80;;
14923;SDS011;7554;43.600;1.480;2023-05-10T09:52:54;8.10;;;2.10;;
14923;SDS011;7554;43.600;1.480;2023-05-10T09:55:24;10.77;;;1.90;;
14923;SDS011;7554;43.600;1.480;2023-05-10T09:57:58;8.07;;;1.87;;
14923;SDS011;7554;43.600;1.480;2023-05-10T10:00:26;20.33;;;2.63;;
14923;SDS011;7554;43.600;1.480;2023-05-10T10:03:00;13.87;;;2.23;;
14923;SDS011;7554;43.600;1.480;2023-05-10T10:05:29;8.70;;;1.70;;
14923;SDS011;7554;43.600;1.480;2023-05-10T10:07:57;13.63;;;2.23;;
14923;SDS011;7554;43.600;1.480;2023-05-10T10:10:25;10.30;;;2.13;;
14923;SDS011;7554;43.600;1.480;2023-05-10T10:12:53;6.37;;;1.80;;
14923;SDS011;7554;43.600;1.480;2023-05-10T10:15:21;8.50;;;1.80;;
14923;SDS011;7554;43.600;1.480;2023-05-10T10:17:50;9.13;;;1.73;;
14923;SDS011;7554;43.600;1.480;2023-05-10T10:20:19;9.67;;;1.83;;
14923;SDS011;7554;43.600;1.480;2023-05-10T10:22:48;6.33;;;2.00;;
14923;SDS011;7554;43.600;1.480;2023-05-10T10:25:16;7.17;;;1.80;;
14923;SDS011;7554;43.600;1.480;2023-05-10T10:27:47;8.97;;;1.87;;
14923;SDS011;7554;43.600;1.480;2023-05-10T10:30:24;4.83;;;1.63;;
14923;SDS011;7554;43.600;1.480;2023-05-10T10:33:01;7.30;;;1.77;;
14923;SDS011;7554;43.600;1.480;2023-05-10T10:35:43;6.83;;;1.40;;
14923;SDS011;7554;43.600;1.480;2023-05-10T10:38:12;8.47;;;1.83;;
14923;SDS011;7554;43.600;1.480;2023-05-10T10:40:39;10.17;;;2.10;;
14923;SDS011;7554;43.600;1.480;2023-05-10T10:43:23;8.07;;;1.70;;
14923;SDS011;7554;43.600;1.480;2023-05-10T10:48:40;5.17;;;1.37;;
14923;SDS011;7554;43.600;1.480;2023-05-10T10:51:07;5.70;;;1.43;;
14923;SDS011;7554;43.600;1.480;2023-05-10T10:53:35;8.23;;;1.77;;
14923;SDS011;7554;43.600;1.480;2023-05-10T10:56:04;6.07;;;1.53;;
14923;SDS011;7554;43.600;1.480;2023-05-10T10:58:34;6.70;;;1.57;;
14923;SDS011;7554;43.600;1.480;2023-05-10T11:01:10;6.83;;;1.77;;
14923;SDS011;7554;43.600;1.480;2023-05-10T11:03:40;6.13;;;1.63;;
14923;SDS011;7554;43.600;1.480;2023-05-10T11:06:34;6.27;;;1.70;;
14923;SDS011;7554;43.600;1.480;2023-05-10T11:09:05;6.47;;;1.73;;
14923;SDS011;7554;43.600;1.480;2023-05-10T11:11:34;6.37;;;1.67;;
14923;SDS011;7554;43.600;1.480;2023-05-10T11:14:02;9.17;;;1.80;;
14923;SDS011;7554;43.600;1.480;2023-05-10T11:16:40;11.03;;;2.80;;
14923;SDS011;7554;43.600;1.480;2023-05-10T11:19:10;7.17;;;2.10;;
14923;SDS011;7554;43.600;1.480;2023-05-10T11:21:44;11.23;;;2.63;;
14923;SDS011;7554;43.600;1.480;2023-05-10T11:24:13;12.33;;;2.40;;
14923;SDS011;7554;43.600;1.480;2023-05-10T11:26:41;10.20;;;2.20;;
14923;SDS011;7554;43.600;1.480;2023-05-10T11:29:09;8.27;;;2.27;;
14923;SDS011;7554;43.600;1.480;2023-05-10T11:31:41;7.70;;;2.10;;
14923;SDS011;7554;43.600;1.480;2023-05-10T11:34:11;10.07;;;2.23;;
14923;SDS011;7554;43.600;1.480;2023-05-10T11:36:50;9.70;;;2.07;;
14923;SDS011;7554;43.600;1.480;2023-05-10T11:39:19;11.03;;;2.00;;
14923;SDS011;7554;43.600;1.480;2023-05-10T11:41:48;8.87;;;2.37;;
14923;SDS011;7554;43.600;1.480;2023-05-10T11:44:15;8.50;;;1.93;;
14923;SDS011;7554;43.600;1.480;2023-05-10T11:46:43;8.13;;;2.17;;
14923;SDS011;7554;43.600;1.480;2023-05-10T11:49:12;6.93;;;1.60;;
14923;SDS011;7554;43.600;1.480;2023-05-10T11:51:39;8.77;;;1.70;;
14923;SDS011;7554;43.600;1.480;2023-05-10T11:54:09;11.50;;;1.97;;
14923;SDS011;7554;43.600;1.480;2023-05-10T11:56:37;6.47;;;2.33;;
14923;SDS011;7554;43.600;1.480;2023-05-10T11:59:05;6.07;;;1.23;;
14923;SDS011;7554;43.600;1.480;2023-05-10T12:01:33;4.50;;;1.17;;
14923;SDS011;7554;43.600;1.480;2023-05-10T12:04:00;3.67;;;1.03;;
14923;SDS011;7554;43.600;1.480;2023-05-10T12:06:30;6.27;;;1.10;;
14923;SDS011;7554;43.600;1.480;2023-05-10T12:08:59;5.80;;;1.23;;
14923;SDS011;7554;43.600;1.480;2023-05-10T12:11:31;5.87;;;0.97;;
14923;SDS011;7554;43.600;1.480;2023-05-10T12:14:03;4.80;;;1.47;;
14923;SDS011;7554;43.600;1.480;2023-05-10T12:16:31;4.73;;;1.43;;
14923;SDS011;7554;43.600;1.480;2023-05-10T12:18:59;3.80;;;1.20;;
14923;SDS011;7554;43.600;1.480;2023-05-10T12:21:27;2.43;;;1.03;;
14923;SDS011;7554;43.600;1.480;2023-05-10T12:23:59;4.77;;;0.80;;
14923;SDS011;7554;43.600;1.480;2023-05-10T12:26:27;4.40;;;1.07;;
14923;SDS011;7554;43.600;1.480;2023-05-10T12:28:55;3.03;;;0.80;;
14923;SDS011;7554;43.600;1.480;2023-05-10T12:31:48;6.73;;;1.67;;
14923;SDS011;7554;43.600;1.480;2023-05-10T12:34:23;4.07;;;1.17;;
14923;SDS011;7554;43.600;1.480;2023-05-10T12:36:53;7.23;;;1.47;;
14923;SDS011;7554;43.600;1.480;2023-05-10T12:39:21;7.37;;;1.57;;
14923;SDS011;7554;43.600;1.480;2023-05-10T12:41:48;6.03;;;1.20;;
14923;SDS011;7554;43.600;1.480;2023-05-10T12:44:15;5.47;;;1.30;;
14923;SDS011;7554;43.600;1.480;2023-05-10T12:46:43;6.67;;;1.27;;
14923;SDS011;7554;43.600;1.480;2023-05-10T12:49:10;6.10;;;1.20;;
14923;SDS011;7554;43.600;1.480;2023-05-10T12:51:38;3.83;;;1.20;;
14923;SDS011;7554;43.600;1.480;2023-05-10T12:54:06;8.63;;;1.40;;
14923;SDS011;7554;43.600;1.480;2023-05-10T12:56:33;5.70;;;1.30;;
14923;SDS011;7554;43.600;1.480;2023-05-10T12:59:02;6.13;;;1.00;;
14923;SDS011;7554;43.600;1.480;2023-05-10T13:01:29;5.33;;;1.17;;
14923;SDS011;7554;43.600;1.480;2023-05-10T13:03:56;4.33;;;1.10;;
14923;SDS011;7554;43.600;1.480;2023-05-10T13:06:25;5.20;;;1.30;;
14923;SDS011;7554;43.600;1.480;2023-05-10T13:08:52;6.93;;;1.20;;
14923;SDS011;7554;43.600;1.480;2023-05-10T13:11:21;5.47;;;1.30;;
14923;SDS011;7554;43.600;1.480;2023-05-10T13:13:48;3.90;;;1.40;;
14923;SDS011;7554;43.600;1.480;2023-05-10T13:16:15;4.17;;;1.37;;
14923;SDS011;7554;43.600;1.480;2023-05-10T13:18:43;4.00;;;0.90;;
14923;SDS011;7554;43.600;1.480;2023-05-10T13:21:10;3.50;;;1.00;;
14923;SDS011;7554;43.600;1.480;2023-05-10T13:23:37;3.77;;;0.93;;
14923;SDS011;7554;43.600;1.480;2023-05-10T13:26:04;2.83;;;0.90;;
14923;SDS011;7554;43.600;1.480;2023-05-10T13:28:33;4.73;;;1.17;;
14923;SDS011;7554;43.600;1.480;2023-05-10T13:31:00;6.93;;;1.70;;
14923;SDS011;7554;43.600;1.480;2023-05-10T13:33:28;12.93;;;2.37;;
14923;SDS011;7554;43.600;1.480;2023-05-10T13:35:55;41.50;;;4.57;;
14923;SDS011;7554;43.600;1.480;2023-05-10T13:38:22;24.33;;;2.70;;
14923;SDS011;7554;43.600;1.480;2023-05-10T13:40:50;14.53;;;2.10;;
14923;SDS011;7554;43.600;1.480;2023-05-10T13:43:17;13.07;;;2.30;;
14923;SDS011;7554;43.600;1.480;2023-05-10T13:45:46;58.83;;;5.70;;
14923;SDS011;7554;43.600;1.480;2023-05-10T13:48:14;19.20;;;1.67;;
14923;SDS011;7554;43.600;1.480;2023-05-10T13:50:41;10.90;;;1.73;;
14923;SDS011;7554;43.600;1.480;2023-05-10T13:53:09;46.50;;;3.87;;
14923;SDS011;7554;43.600;1.480;2023-05-10T13:55:36;8.43;;;1.30;;
14923;SDS011;7554;43.600;1.480;2023-05-10T13:58:04;5.80;;;1.30;;
14923;SDS011;7554;43.600;1.480;2023-05-10T14:00:31;5.57;;;1.00;;
14923;SDS011;7554;43.600;1.480;2023-05-10T14:03:00;5.00;;;1.37;;
14923;SDS011;7554;43.600;1.480;2023-05-10T14:05:27;9.63;;;1.77;;
14923;SDS011;7554;43.600;1.480;2023-05-10T14:07:55;5.30;;;1.17;;
14923;SDS011;7554;43.600;1.480;2023-05-10T14:10:22;4.37;;;1.13;;
14923;SDS011;7554;43.600;1.480;2023-05-10T14:12:49;7.70;;;1.70;;
14923;SDS011;7554;43.600;1.480;2023-05-10T14:15:17;4.63;;;1.20;;
14923;SDS011;7554;43.600;1.480;2023-05-10T14:17:44;7.57;;;1.70;;
14923;SDS011;7554;43.600;1.480;2023-05-10T14:20:13;50.37;;;5.13;;
14923;SDS011;7554;43.600;1.480;2023-05-10T14:22:40;3.57;;;1.27;;
14923;SDS011;7554;43.600;1.480;2023-05-10T14:25:07;5.97;;;1.30;;
14923;SDS011;7554;43.600;1.480;2023-05-10T14:27:35;2.53;;;1.00;;
14923;SDS011;7554;43.600;1.480;2023-05-10T14:30:03;7.00;;;1.20;;
14923;SDS011;7554;43.600;1.480;2023-05-10T14:32:30;10.83;;;1.43;;
14923;SDS011;7554;43.600;1.480;2023-05-10T14:34:59;4.67;;;1.20;;
14923;SDS011;7554;43.600;1.480;2023-05-10T14:37:27;5.77;;;1.53;;
14923;SDS011;7554;43.600;1.480;2023-05-10T14:39:54;4.43;;;1.20;;
14923;SDS011;7554;43.600;1.480;2023-05-10T14:42:22;7.20;;;1.43;;
14923;SDS011;7554;43.600;1.480;2023-05-10T14:44:49;5.47;;;1.10;;
14923;SDS011;7554;43.600;1.480;2023-05-10T14:47:16;4.57;;;1.10;;
14923;SDS011;7554;43.600;1.480;2023-05-10T14:49:44;3.70;;;1.17;;
14923;SDS011;7554;43.600;1.480;2023-05-10T14:52:11;6.77;;;1.30;;
14923;SDS011;7554;43.600;1.480;2023-05-10T14:54:40;3.50;;;0.90;;
14923;SDS011;7554;43.600;1.480;2023-05-10T14:57:08;6.00;;;1.00;;
14923;SDS011;7554;43.600;1.480;2023-05-10T14:59:35;5.60;;;1.00;;
14923;SDS011;7554;43.600;1.480;2023-05-10T15:02:02;7.03;;;1.47;;
14923;SDS011;7554;43.600;1.480;2023-05-10T15:04:30;5.70;;;1.27;;
14923;SDS011;7554;43.600;1.480;2023-05-10T15:06:58;5.90;;;1.40;;
14923;SDS011;7554;43.600;1.480;2023-05-10T15:09:25;8.97;;;1.40;;
14923;SDS011;7554;43.600;1.480;2023-05-10T15:11:54;4.77;;;1.10;;
14923;SDS011;7554;43.600;1.480;2023-05-10T15:14:22;5.23;;;1.10;;
14923;SDS011;7554;43.600;1.480;2023-05-10T15:16:49;3.43;;;1.00;;